^^
Datos históricos de la estación: Murcia-Puente Tocinos
Diario Informe para Enero 1, 2019 Unidades:  Ambas    Ingés   Métrico
Diario Semanal Mensual Anual
  Máxima: Mínima: Promedio:
Temperatura: 92.5 °F /  33.6 °C 72.9 °F /  22.7 °C 81 °F /  27.2 °C
Punto de rocio: 70.7 °F /  21.5 °C 60.4 °F /  15.8 °C 65.1 °F /  18.4 °C
Humedad: 75.2% 38% 60%
Velocidad viento: 13.7mph /  22.1km/h - 4.8mph /  7.7km/h
Racha viento: 23.5mph /  37.8km/h - -
Viento- - SSE
Presión: 29.9 in /  1012.2 hPa 29.8 in /  1007.6 hPa -
Precipitación: 0 in /  0.0 mm    
 
 
Tabla de datos para Enero 1, 2019
Hora Temperatura Punto de rocio Presión Viento Velocidad viento Racha viento Humedad Intensidad lluvia(por hora) Nubes
00:04 77.4 °F /  25.2 °C 67.3 °F /  19.6 °C 29.9in /  1011.9hPa NO 4.7mph /  7.6km/h 9mph /  14.5km/h 71.3% 0in /  0.0mm
00:09 77.4 °F /  25.2 °C 67.3 °F /  19.6 °C 29.9in /  1011.8hPa North 4.1mph /  6.6km/h 6mph /  9.7km/h 71% 0in /  0.0mm
00:14 77.4 °F /  25.2 °C 67.3 °F /  19.6 °C 29.9in /  1011.8hPa NNO 2.9mph /  4.7km/h 6mph /  9.7km/h 71% 0in /  0.0mm
00:19 77.4 °F /  25.2 °C 66.9 °F /  19.4 °C 29.9in /  1011.8hPa NNO 2.6mph /  4.2km/h 6mph /  9.7km/h 70.5% 0in /  0.0mm
00:24 77.4 °F /  25.2 °C 66.7 °F /  19.3 °C 29.9in /  1011.8hPa ONO 2mph /  3.2km/h 4.7mph /  7.6km/h 70% 0in /  0.0mm
00:29 77.4 °F /  25.2 °C 66.7 °F /  19.3 °C 29.9in /  1011.8hPa ONO 2mph /  3.2km/h 5mph /  8km/h 69.9% 0in /  0.0mm
00:34 77.4 °F /  25.2 °C 66.4 °F /  19.1 °C 29.9in /  1011.9hPa Oeste 2mph /  3.2km/h 5mph /  8km/h 69.1% 0in /  0.0mm
00:39 77.4 °F /  25.2 °C 66.7 °F /  19.3 °C 29.9in /  1011.9hPa Oeste 2mph /  3.2km/h 5mph /  8km/h 70% 0in /  0.0mm
00:44 77.4 °F /  25.2 °C 66.7 °F /  19.3 °C 29.9in /  1011.9hPa Oeste 2mph /  3.2km/h 5mph /  8km/h 70% 0in /  0.0mm
00:49 77.4 °F /  25.2 °C 66.7 °F /  19.3 °C 29.9in /  1012.2hPa Oeste 1.3mph /  2.1km/h   70% 0in /  0.0mm
00:54 77.4 °F /  25.2 °C 66.7 °F /  19.3 °C 29.9in /  1012.2hPa Calm   4.7mph /  7.6km/h 70% 0in /  0.0mm
00:59 77.4 °F /  25.2 °C 66.7 °F /  19.3 °C 29.9in /  1012.2hPa ESE 0.7mph /  1.1km/h 5mph /  8km/h 70% 0in /  0.0mm
01:04 77.2 °F /  25.1 °C 66.7 °F /  19.3 °C 29.9in /  1012.2hPa ESE 1.8mph /  2.9km/h 4.7mph /  7.6km/h 70% 0in /  0.0mm
01:09 77.2 °F /  25.1 °C 66.6 °F /  19.2 °C 29.9in /  1012.2hPa ESE 1.9mph /  3km/h 5mph /  8km/h 70% 0in /  0.0mm
01:14 77.4 °F /  25.2 °C 67.1 °F /  19.5 °C 29.9in /  1012.2hPa ESE 2mph /  3.2km/h 3.5mph /  5.6km/h 70.8% 0in /  0.0mm
01:19 77.4 °F /  25.2 °C 66.9 °F /  19.4 °C 29.9in /  1012.2hPa ESE 1.4mph /  2.2km/h 3.6mph /  5.8km/h 70.4% 0in /  0.0mm
01:24 77.4 °F /  25.2 °C 67.3 °F /  19.6 °C 29.9in /  1012.0hPa Calm   4.6mph /  7.4km/h 71% 0in /  0.0mm
01:29 77.5 °F /  25.3 °C 67.3 °F /  19.6 °C 29.9in /  1012.0hPa Sur 0.7mph /  1.1km/h 5mph /  8km/h 71% 0in /  0.0mm
01:34 77.5 °F /  25.3 °C 67.5 °F /  19.7 °C 29.9in /  1012.0hPa SSO 2mph /  3.2km/h 5mph /  8km/h 71% 0in /  0.0mm
01:39 77.5 °F /  25.3 °C 67.5 °F /  19.7 °C 29.9in /  1011.9hPa SSO 1.8mph /  2.9km/h 3mph /  4.8km/h 71% 0in /  0.0mm
01:44 77.5 °F /  25.3 °C 67.1 °F /  19.5 °C 29.9in /  1011.9hPa ENE 1.4mph /  2.2km/h 4.6mph /  7.4km/h 70.5% 0in /  0.0mm
01:49 77.4 °F /  25.2 °C 66.7 °F /  19.3 °C 29.9in /  1011.9hPa ONO 1.6mph /  2.5km/h 5mph /  8km/h 70% 0in /  0.0mm
01:54 76.8 °F /  24.9 °C 66.7 °F /  19.3 °C 29.9in /  1011.7hPa ONO 2mph /  3.2km/h 3mph /  4.8km/h 71% 0in /  0.0mm
01:59 76.6 °F /  24.8 °C 66.6 °F /  19.2 °C 29.9in /  1011.7hPa ONO 1.3mph /  2.1km/h 3mph /  4.8km/h 71.2% 0in /  0.0mm
02:04 76.5 °F /  24.7 °C 66.7 °F /  19.3 °C 29.9in /  1011.7hPa Calm   3mph /  4.8km/h 72% 0in /  0.0mm
02:09 76.3 °F /  24.6 °C 66.6 °F /  19.2 °C 29.9in /  1011.7hPa ONO 0.4mph /  0.7km/h 4.6mph /  7.4km/h 72% 0in /  0.0mm
02:14 76.1 °F /  24.5 °C 66.4 °F /  19.1 °C 29.9in /  1011.7hPa ONO 1.4mph /  2.2km/h 5mph /  8km/h 72% 0in /  0.0mm
02:19 75.9 °F /  24.4 °C 66.2 °F /  19 °C 29.9in /  1011.7hPa NO 1.4mph /  2.2km/h 4.6mph /  7.4km/h 72% 0in /  0.0mm
02:24 75.9 °F /  24.4 °C 66.2 °F /  19 °C 29.9in /  1011.5hPa NO 1.4mph /  2.2km/h 5mph /  8km/h 72% 0in /  0.0mm
02:29 75.9 °F /  24.4 °C 66.4 °F /  19.1 °C 29.9in /  1011.5hPa NO 1.6mph /  2.5km/h 4mph /  6.4km/h 72.4% 0in /  0.0mm
02:34 75.9 °F /  24.4 °C 66.6 °F /  19.2 °C 29.9in /  1012.0hPa ONO 1.8mph /  2.9km/h 5mph /  8km/h 73% 0in /  0.0mm
02:39 75.9 °F /  24.4 °C 66.6 °F /  19.2 °C 29.9in /  1012.0hPa ONO 1.7mph /  2.7km/h 2mph /  3.2km/h 73% 0in /  0.0mm
02:44 75.9 °F /  24.4 °C 66.6 °F /  19.2 °C 29.9in /  1012.0hPa ONO 1.4mph /  2.2km/h   73.1% 0in /  0.0mm
02:49 76.1 °F /  24.5 °C 67.3 °F /  19.6 °C 29.9in /  1012.0hPa SSE 0.9mph /  1.5km/h 4.6mph /  7.4km/h 74% 0in /  0.0mm
02:54 76.3 °F /  24.6 °C 67.5 °F /  19.7 °C 29.9in /  1012.0hPa Calm   5mph /  8km/h 74% 0in /  0.0mm
02:59 76.5 °F /  24.7 °C 67.6 °F /  19.8 °C 29.9in /  1012.0hPa ENE 0.7mph /  1.1km/h 4mph /  6.4km/h 74% 0in /  0.0mm
03:04 76.5 °F /  24.7 °C 67.6 °F /  19.8 °C 29.9in /  1012.0hPa ENE 1.8mph /  2.9km/h   74% 0in /  0.0mm
03:09 76.5 °F /  24.7 °C 67.6 °F /  19.8 °C 29.9in /  1011.8hPa Este 1.2mph /  1.9km/h 2.4mph /  3.9km/h 74% 0in /  0.0mm
03:14 76.5 °F /  24.7 °C 67.3 °F /  19.6 °C 29.9in /  1011.8hPa Calm   5.2mph /  8.4km/h 73.4% 0in /  0.0mm
03:19 76.1 °F /  24.5 °C 67.1 °F /  19.5 °C 29.9in /  1012.0hPa Sur 1mph /  1.6km/h 5.8mph /  9.3km/h 73.7% 0in /  0.0mm
03:24 75.7 °F /  24.3 °C 66.9 °F /  19.4 °C 29.9in /  1012.0hPa SSO 2.9mph /  4.7km/h 6.2mph /  10km/h 74% 0in /  0.0mm
03:29 75.6 °F /  24.2 °C 66.6 °F /  19.2 °C 29.9in /  1012.0hPa OSO 3.2mph /  5.2km/h 6.9mph /  11.1km/h 73.7% 0in /  0.0mm
03:34 75.6 °F /  24.2 °C 66.4 °F /  19.1 °C 29.9in /  1012.0hPa OSO 4mph /  6.5km/h 7mph /  11.3km/h 72.9% 0in /  0.0mm
03:39 75.7 °F /  24.3 °C 66 °F /  18.9 °C 29.9in /  1011.8hPa OSO 3.7mph /  5.9km/h 6.9mph /  11.1km/h 72% 0in /  0.0mm
03:44 75.6 °F /  24.2 °C 65.8 °F /  18.8 °C 29.9in /  1011.8hPa OSO 2.9mph /  4.7km/h 7mph /  11.3km/h 71.6% 0in /  0.0mm
03:49 75.6 °F /  24.2 °C 65.3 °F /  18.5 °C 29.9in /  1011.8hPa SSO 3.1mph /  5km/h 7mph /  11.3km/h 70.6% 0in /  0.0mm
03:54 75.6 °F /  24.2 °C 65.1 °F /  18.4 °C 29.9in /  1011.4hPa ESE 3.6mph /  5.8km/h 5.2mph /  8.4km/h 70% 0in /  0.0mm
03:59 75.6 °F /  24.2 °C 65.1 °F /  18.4 °C 29.9in /  1011.4hPa OSO 3.4mph /  5.4km/h 6.2mph /  10km/h 70% 0in /  0.0mm
04:04 75.6 °F /  24.2 °C 64.9 °F /  18.3 °C 29.9in /  1011.4hPa SO 2.9mph /  4.7km/h 7.4mph /  11.9km/h 69.4% 0in /  0.0mm
04:09 75.6 °F /  24.2 °C 64.8 °F /  18.2 °C 29.9in /  1011.3hPa SO 3.3mph /  5.3km/h 7mph /  11.3km/h 69% 0in /  0.0mm
04:14 75.6 °F /  24.2 °C 64.8 °F /  18.2 °C 29.9in /  1011.3hPa SSO 4mph /  6.5km/h 5.4mph /  8.7km/h 69% 0in /  0.0mm
04:19 75.6 °F /  24.2 °C 64.4 °F /  18 °C 29.9in /  1011.3hPa SO 3.7mph /  5.9km/h 6mph /  9.7km/h 68.1% 0in /  0.0mm
04:24 75.7 °F /  24.3 °C 64.4 °F /  18 °C 29.9in /  1011.3hPa SO 3.1mph /  5km/h 6mph /  9.7km/h 67.8% 0in /  0.0mm
04:29 75.7 °F /  24.3 °C 63.9 °F /  17.7 °C 29.9in /  1011.3hPa OSO 3.1mph /  5km/h 8.1mph /  13km/h 66.5% 0in /  0.0mm
04:34 75.7 °F /  24.3 °C 63.7 °F /  17.6 °C 29.9in /  1011.3hPa SO 3.1mph /  5km/h 8.1mph /  13km/h 66% 0in /  0.0mm
04:39 75.6 °F /  24.2 °C 63.5 °F /  17.5 °C 29.9in /  1011.1hPa SO 3.6mph /  5.8km/h 8mph /  12.9km/h 66% 0in /  0.0mm
04:44 75.6 °F /  24.2 °C 63.5 °F /  17.5 °C 29.9in /  1011.1hPa SSO 4.7mph /  7.6km/h 8.5mph /  13.7km/h 66.2% 0in /  0.0mm
04:49 75.6 °F /  24.2 °C 63.9 °F /  17.7 °C 29.9in /  1011.1hPa SSO 5mph /  8km/h 9mph /  14.5km/h 67.1% 0in /  0.0mm
04:54 75.4 °F /  24.1 °C 64 °F /  17.8 °C 29.9in /  1011.1hPa SSO 5.4mph /  8.7km/h 8mph /  12.9km/h 68% 0in /  0.0mm
04:59 75 °F /  23.9 °C 63.7 °F /  17.6 °C 29.9in /  1011.1hPa SO 4.8mph /  7.8km/h 7.4mph /  11.9km/h 68% 0in /  0.0mm
05:04 74.8 °F /  23.8 °C 63.9 °F /  17.7 °C 29.9in /  1011.1hPa OSO 4mph /  6.5km/h 7.4mph /  11.9km/h 68.8% 0in /  0.0mm
05:09 74.8 °F /  23.8 °C 64.2 °F /  17.9 °C 29.9in /  1011.1hPa Oeste 3.6mph /  5.8km/h 7mph /  11.3km/h 69.6% 0in /  0.0mm
05:14 74.7 °F /  23.7 °C 63.7 °F /  17.6 °C 29.9in /  1011.1hPa ONO 2.9mph /  4.7km/h 5mph /  8km/h 68.8% 0in /  0.0mm
05:19 74.5 °F /  23.6 °C 63.3 °F /  17.4 °C 29.9in /  1011.1hPa Oeste 3mph /  4.8km/h 6.2mph /  10km/h 68.1% 0in /  0.0mm
05:24 74.3 °F /  23.5 °C 63.5 °F /  17.5 °C 29.9in /  1011.0hPa OSO 3.1mph /  5km/h 8.1mph /  13km/h 69% 0in /  0.0mm
05:29 74.1 °F /  23.4 °C 63.3 °F /  17.4 °C 29.9in /  1011.0hPa SO 3.4mph /  5.5km/h 8.1mph /  13km/h 69% 0in /  0.0mm
05:34 73.9 °F /  23.3 °C 63.1 °F /  17.3 °C 29.9in /  1011.6hPa SO 4mph /  6.5km/h 7mph /  11.3km/h 69% 0in /  0.0mm
05:39 73.9 °F /  23.3 °C 62.8 °F /  17.1 °C 29.9in /  1011.6hPa SO 3.7mph /  5.9km/h 6mph /  9.7km/h 68.3% 0in /  0.0mm
05:44 74.1 °F /  23.4 °C 62.6 °F /  17 °C 29.9in /  1011.6hPa OSO 3.1mph /  5km/h 6.9mph /  11.1km/h 67.5% 0in /  0.0mm
05:49 74.1 °F /  23.4 °C 62.4 °F /  16.9 °C 29.9in /  1011.6hPa SO 3.4mph /  5.5km/h 7mph /  11.3km/h 67% 0in /  0.0mm
05:54 74.1 °F /  23.4 °C 62.4 °F /  16.9 °C 29.9in /  1011.4hPa SO 4mph /  6.5km/h 7mph /  11.3km/h 67% 0in /  0.0mm
05:59 74.1 °F /  23.4 °C 62.2 °F /  16.8 °C 29.9in /  1011.4hPa SO 3.9mph /  6.2km/h 7.6mph /  12.2km/h 66.3% 0in /  0.0mm
06:04 73.9 °F /  23.3 °C 61.9 °F /  16.6 °C 29.9in /  1011.5hPa SO 3.6mph /  5.8km/h 8.1mph /  13km/h 66% 0in /  0.0mm
06:09 73.9 °F /  23.3 °C 61.9 °F /  16.6 °C 29.9in /  1011.5hPa SO 3.9mph /  6.2km/h 8mph /  12.9km/h 66% 0in /  0.0mm
06:14 73.9 °F /  23.3 °C 62.1 °F /  16.7 °C 29.9in /  1011.5hPa SO 4.3mph /  6.9km/h 6.9mph /  11.1km/h 66.4% 0in /  0.0mm
06:19 73.9 °F /  23.3 °C 62.2 °F /  16.8 °C 29.9in /  1011.5hPa SO 4.2mph /  6.8km/h 7mph /  11.3km/h 67% 0in /  0.0mm
06:24 73.9 °F /  23.3 °C 62.2 °F /  16.8 °C 29.9in /  1011.4hPa OSO 4mph /  6.5km/h 7mph /  11.3km/h 67% 0in /  0.0mm
06:29 73.9 °F /  23.3 °C 62.2 °F /  16.8 °C 29.9in /  1011.4hPa OSO 3.7mph /  6km/h 5.8mph /  9.3km/h 67% 0in /  0.0mm
06:34 73.8 °F /  23.2 °C 62.1 °F /  16.7 °C 29.9in /  1011.4hPa Oeste 3.1mph /  5km/h 6mph /  9.7km/h 67% 0in /  0.0mm
06:39 73.6 °F /  23.1 °C 62.2 °F /  16.8 °C 29.9in /  1011.1hPa Oeste 3mph /  4.9km/h 6mph /  9.7km/h 67.6% 0in /  0.0mm
06:44 73.4 °F /  23 °C 62.2 °F /  16.8 °C 29.9in /  1011.1hPa Oeste 2.9mph /  4.7km/h 6mph /  9.7km/h 68% 0in /  0.0mm
06:49 73.2 °F /  22.9 °C 62.1 °F /  16.7 °C 29.9in /  1011.1hPa OSO 2.6mph /  4.2km/h 5mph /  8km/h 68% 0in /  0.0mm
06:54 73 °F /  22.8 °C 62.2 °F /  16.8 °C 29.9in /  1011.0hPa SO 2mph /  3.2km/h 5mph /  8km/h 68.7% 0in /  0.0mm
06:59 73 °F /  22.8 °C 62.2 °F /  16.8 °C 29.9in /  1011.0hPa SO 2mph /  3.2km/h 5mph /  8km/h 69% 0in /  0.0mm
07:04 73 °F /  22.8 °C 62.2 °F /  16.8 °C 29.9in /  1011.1hPa SSO 2mph /  3.2km/h 5mph /  8km/h 69% 0in /  0.0mm
07:09 73.2 °F /  22.9 °C 62.4 °F /  16.9 °C 29.9in /  1011.1hPa Sur 2.4mph /  3.8km/h 6.2mph /  10km/h 69% 0in /  0.0mm
07:14 73.2 °F /  22.9 °C 62.2 °F /  16.8 °C 29.9in /  1011.1hPa Sur 3.1mph /  5km/h 7.4mph /  11.9km/h 68.4% 0in /  0.0mm
07:19 73.4 °F /  23 °C 62.2 °F /  16.8 °C 29.9in /  1011.4hPa SSO 3.5mph /  5.6km/h 7mph /  11.3km/h 68% 0in /  0.0mm
07:24 73.4 °F /  23 °C 62.2 °F /  16.8 °C 29.9in /  1011.4hPa Sur 4.3mph /  6.9km/h 9.2mph /  14.8km/h 68.4% 0in /  0.0mm
07:29 73.2 °F /  22.9 °C 62.4 °F /  16.9 °C 29.9in /  1011.4hPa Sur 4.6mph /  7.4km/h 9mph /  14.5km/h 69.1% 0in /  0.0mm
07:34 73 °F /  22.8 °C 62.8 °F /  17.1 °C 29.9in /  1011.6hPa Sur 5.2mph /  8.4km/h 8mph /  12.9km/h 70% 0in /  0.0mm
07:39 72.9 °F /  22.7 °C 62.6 °F /  17 °C 29.9in /  1011.6hPa SSO 5mph /  8.1km/h 8.1mph /  13km/h 70% 0in /  0.0mm
07:44 73 °F /  22.8 °C 62.6 °F /  17 °C 29.9in /  1011.6hPa SSO 4.7mph /  7.6km/h 8.1mph /  13km/h 69.9% 0in /  0.0mm
07:49 73 °F /  22.8 °C 62.4 °F /  16.9 °C 29.9in /  1011.6hPa SO 4.8mph /  7.8km/h 8.5mph /  13.7km/h 69.3% 0in /  0.0mm
07:54 73.2 °F /  22.9 °C 62.4 °F /  16.9 °C 29.9in /  1011.6hPa OSO 5.2mph /  8.4km/h 9mph /  14.5km/h 69% 0in /  0.0mm
07:59 73.4 °F /  23 °C 62.6 °F /  17 °C 29.9in /  1011.6hPa SO 4.8mph /  7.8km/h 8mph /  12.9km/h 69% 0in /  0.0mm
08:04 73.6 °F /  23.1 °C 62.8 °F /  17.1 °C 29.9in /  1011.6hPa SSO 4.3mph /  6.9km/h 7.6mph /  12.2km/h 69% 0in /  0.0mm
08:09 73.8 °F /  23.2 °C 62.6 °F /  17 °C 29.9in /  1011.6hPa SSO 4.4mph /  7.1km/h 8.1mph /  13km/h 68.2% 0in /  0.0mm
08:14 73.9 °F /  23.3 °C 62.8 °F /  17.1 °C 29.9in /  1011.6hPa OSO 4.7mph /  7.6km/h 7mph /  11.3km/h 68% 0in /  0.0mm
08:19 74.1 °F /  23.4 °C 63 °F /  17.2 °C 29.9in /  1011.6hPa OSO 4.3mph /  7km/h 7mph /  11.3km/h 67.9% 0in /  0.0mm
08:24 74.5 °F /  23.6 °C 62.8 °F /  17.1 °C 29.9in /  1011.5hPa OSO 3.6mph /  5.8km/h 7mph /  11.3km/h 67.1% 0in /  0.0mm
08:29 74.5 °F /  23.6 °C 63.1 °F /  17.3 °C 29.9in /  1011.5hPa OSO 3.6mph /  5.8km/h 7mph /  11.3km/h 67.9% 0in /  0.0mm
08:34 74.7 °F /  23.7 °C 63 °F /  17.2 °C 29.9in /  1011.5hPa OSO 3.6mph /  5.8km/h 7mph /  11.3km/h 67% 0in /  0.0mm
08:39 74.7 °F /  23.7 °C 63.1 °F /  17.3 °C 29.9in /  1011.5hPa OSO 3.6mph /  5.8km/h 6.2mph /  10km/h 67.4% 0in /  0.0mm
08:44 74.8 °F /  23.8 °C 63.1 °F /  17.3 °C 29.9in /  1011.5hPa SO 3.6mph /  5.8km/h 6mph /  9.7km/h 67% 0in /  0.0mm
08:49 74.8 °F /  23.8 °C 63.1 °F /  17.3 °C 29.9in /  1011.5hPa Oeste 3.4mph /  5.5km/h 6mph /  9.7km/h 67% 0in /  0.0mm
08:54 75.2 °F /  24 °C 63.3 °F /  17.4 °C 29.9in /  1011.2hPa Oeste 3.1mph /  5km/h 5.9mph /  9.5km/h 66.4% 0in /  0.0mm
08:59 75.6 °F /  24.2 °C 63.3 °F /  17.4 °C 29.9in /  1011.2hPa SO 2.9mph /  4.6km/h 6.2mph /  10km/h 66% 0in /  0.0mm
09:04 75.6 °F /  24.2 °C 63.3 °F /  17.4 °C 29.9in /  1011.4hPa Oeste 2.4mph /  3.9km/h 6mph /  9.7km/h 65.8% 0in /  0.0mm
09:09 75.7 °F /  24.3 °C 63.1 °F /  17.3 °C 29.9in /  1011.4hPa OSO 2.5mph /  4.1km/h 6.9mph /  11.1km/h 65% 0in /  0.0mm
09:14 75.9 °F /  24.4 °C 63.3 °F /  17.4 °C 29.9in /  1011.4hPa OSO 2.9mph /  4.7km/h 7mph /  11.3km/h 65% 0in /  0.0mm
09:19 75.9 °F /  24.4 °C 63.3 °F /  17.4 °C 29.9in /  1011.4hPa NO 3.3mph /  5.3km/h 7mph /  11.3km/h 65% 0in /  0.0mm
09:24 75.9 °F /  24.4 °C 63.3 °F /  17.4 °C 29.9in /  1011.0hPa ONO 4mph /  6.5km/h 7mph /  11.3km/h 65% 0in /  0.0mm
09:29 76.1 °F /  24.5 °C 63.3 °F /  17.4 °C 29.9in /  1011.0hPa Oeste 3.7mph /  6km/h 7mph /  11.3km/h 65% 0in /  0.0mm
09:34 76.5 °F /  24.7 °C 63.5 °F /  17.5 °C 29.9in /  1011.0hPa NO 3.1mph /  5km/h 5.9mph /  9.5km/h 64.4% 0in /  0.0mm
09:39 76.6 °F /  24.8 °C 63.5 °F /  17.5 °C 29.9in /  1011.0hPa SSO 3mph /  4.9km/h 6.9mph /  11.1km/h 64.2% 0in /  0.0mm
09:44 76.8 °F /  24.9 °C 63.7 °F /  17.6 °C 29.9in /  1011.0hPa SO 2.9mph /  4.7km/h 7mph /  11.3km/h 64% 0in /  0.0mm
09:49 77 °F /  25 °C 63.7 °F /  17.6 °C 29.9in /  1011.3hPa SO 3.1mph /  5km/h 7.4mph /  11.9km/h 63.6% 0in /  0.0mm
09:54 77.4 °F /  25.2 °C 63.9 °F /  17.7 °C 29.9in /  1011.3hPa SO 3.6mph /  5.8km/h 7.4mph /  11.9km/h 63.1% 0in /  0.0mm
09:59 77.5 °F /  25.3 °C 63.9 °F /  17.7 °C 29.9in /  1011.3hPa Sur 3.9mph /  6.2km/h 8.1mph /  13km/h 62.5% 0in /  0.0mm
10:04 77.9 °F /  25.5 °C 63.9 °F /  17.7 °C 29.9in /  1011.3hPa SSO 4.3mph /  6.9km/h 8.1mph /  13km/h 62% 0in /  0.0mm
10:09 78.3 °F /  25.7 °C 64 °F /  17.8 °C 29.9in /  1011.3hPa OSO 4.3mph /  6.9km/h 8.5mph /  13.7km/h 61.6% 0in /  0.0mm
10:14 78.4 °F /  25.8 °C 63.9 °F /  17.7 °C 29.9in /  1011.3hPa SSO 4.3mph /  6.9km/h 9mph /  14.5km/h 61% 0in /  0.0mm
10:19 79 °F /  26.1 °C 64.2 °F /  17.9 °C 29.9in /  1011.3hPa SSO 4mph /  6.5km/h 6.9mph /  11.1km/h 60.7% 0in /  0.0mm
10:24 79.2 °F /  26.2 °C 64 °F /  17.8 °C 29.9in /  1011.3hPa SSO 3.6mph /  5.8km/h 7mph /  11.3km/h 60% 0in /  0.0mm
10:29 79.3 °F /  26.3 °C 63.9 °F /  17.7 °C 29.9in /  1011.3hPa SSO 3.9mph /  6.2km/h 8.1mph /  13km/h 59.4% 0in /  0.0mm
10:34 79.5 °F /  26.4 °C 63.5 °F /  17.5 °C 29.9in /  1011.3hPa Oeste 4.3mph /  6.9km/h 8.1mph /  13km/h 58% 0in /  0.0mm
10:39 80.1 °F /  26.7 °C 63.3 °F /  17.4 °C 29.9in /  1011.2hPa ONO 4.5mph /  7.2km/h 8.1mph /  13km/h 56.9% 0in /  0.0mm
10:44 80.2 °F /  26.8 °C 63.5 °F /  17.5 °C 29.9in /  1011.2hPa Oeste 4.7mph /  7.6km/h 8mph /  12.9km/h 56.7% 0in /  0.0mm
10:49 80.8 °F /  27.1 °C 63.5 °F /  17.5 °C 29.9in /  1011.2hPa Oeste 4.3mph /  7km/h 9.2mph /  14.8km/h 55.8% 0in /  0.0mm
10:54 81.1 °F /  27.3 °C 63.3 °F /  17.4 °C 29.9in /  1011.2hPa Oeste 3.6mph /  5.8km/h 10.4mph /  16.7km/h 54.8% 0in /  0.0mm
10:59 81.3 °F /  27.4 °C 64 °F /  17.8 °C 29.9in /  1011.2hPa OSO 4.3mph /  6.9km/h 10.4mph /  16.7km/h 55.6% 0in /  0.0mm
11:04 81.3 °F /  27.4 °C 63.7 °F /  17.6 °C 29.9in /  1011.2hPa SO 5.4mph /  8.7km/h 10mph /  16.1km/h 55% 0in /  0.0mm
11:09 81.7 °F /  27.6 °C 64 °F /  17.8 °C 29.9in /  1011.2hPa SSO 4.9mph /  7.9km/h 10.2mph /  16.4km/h 55.2% 0in /  0.0mm
11:14 81.7 °F /  27.6 °C 64 °F /  17.8 °C 29.9in /  1011.2hPa SSO 4mph /  6.5km/h 10.4mph /  16.7km/h 55% 0in /  0.0mm
11:19 81.7 °F /  27.6 °C 63.7 °F /  17.6 °C 29.9in /  1011.3hPa SSO 4.8mph /  7.7km/h 13mph /  20.9km/h 54.6% 0in /  0.0mm
11:24 81.9 °F /  27.7 °C 63.7 °F /  17.6 °C 29.9in /  1011.3hPa SSO 6.4mph /  10.3km/h 13mph /  20.9km/h 54% 0in /  0.0mm
11:29 82 °F /  27.8 °C 63.5 °F /  17.5 °C 29.9in /  1011.3hPa SSO 6.3mph /  10.2km/h 14mph /  22.5km/h 53.5% 0in /  0.0mm
11:34 82.2 °F /  27.9 °C 63 °F /  17.2 °C 29.9in /  1011.4hPa Sur 6.2mph /  10km/h 14mph /  22.5km/h 52.1% 0in /  0.0mm
11:39 82.8 °F /  28.2 °C 62.8 °F /  17.1 °C 29.9in /  1011.4hPa Sur 6mph /  9.6km/h 9.2mph /  14.8km/h 51% 0in /  0.0mm
11:44 82.8 °F /  28.2 °C 62.1 °F /  16.7 °C 29.9in /  1011.4hPa Sur 5.4mph /  8.7km/h 9.2mph /  14.8km/h 49.9% 0in /  0.0mm
11:49 82.8 °F /  28.2 °C 61.7 °F /  16.5 °C 29.9in /  1011.4hPa SSO 5.4mph /  8.7km/h 9.2mph /  14.8km/h 49.2% 0in /  0.0mm
11:54 82.8 °F /  28.2 °C 61.7 °F /  16.5 °C 29.9in /  1011.4hPa Sur 5.4mph /  8.7km/h 10.2mph /  16.4km/h 49.3% 0in /  0.0mm
11:59 82.6 °F /  28.1 °C 61.5 °F /  16.4 °C 29.9in /  1011.4hPa Sur 5.6mph /  9km/h 10.4mph /  16.7km/h 49% 0in /  0.0mm
12:04 82.8 °F /  28.2 °C 61.5 °F /  16.4 °C 29.9in /  1011.7hPa SSE 5.9mph /  9.5km/h 10.4mph /  16.7km/h 48.8% 0in /  0.0mm
12:09 82.9 °F /  28.3 °C 61.3 °F /  16.3 °C 29.9in /  1011.7hPa Sur 5.9mph /  9.5km/h 10.7mph /  17.2km/h 48% 0in /  0.0mm
12:14 83.1 °F /  28.4 °C 61 °F /  16.1 °C 29.9in /  1011.7hPa SSE 5.9mph /  9.5km/h 11.5mph /  18.5km/h 47.3% 0in /  0.0mm
12:19 83.1 °F /  28.4 °C 60.8 °F /  16 °C 29.9in /  1011.7hPa SSE 6.4mph /  10.3km/h 12.5mph /  20.1km/h 47% 0in /  0.0mm
12:24 82.9 °F /  28.3 °C 60.6 °F /  15.9 °C 29.9in /  1011.4hPa SSE 7.4mph /  11.9km/h 13mph /  20.9km/h 47% 0in /  0.0mm
12:29 82.9 °F /  28.3 °C 60.8 °F /  16 °C 29.9in /  1011.4hPa ESE 7.1mph /  11.4km/h 10mph /  16.1km/h 47.2% 0in /  0.0mm
12:34 83.1 °F /  28.4 °C 60.6 °F /  15.9 °C 29.9in /  1011.4hPa Este 6.4mph /  10.3km/h 8mph /  12.9km/h 46.7% 0in /  0.0mm
12:39 83.5 °F /  28.6 °C 60.6 °F /  15.9 °C 29.9in /  1011.2hPa ESE 5.5mph /  8.8km/h 8.5mph /  13.7km/h 46% 0in /  0.0mm
12:44 83.8 °F /  28.8 °C 60.8 °F /  16 °C 29.9in /  1011.2hPa NE 3.6mph /  5.8km/h 9mph /  14.5km/h 45.9% 0in /  0.0mm
12:49 84.6 °F /  29.2 °C 60.8 °F /  16 °C 29.9in /  1011.2hPa NE 3.4mph /  5.4km/h 6.9mph /  11.1km/h 44.9% 0in /  0.0mm
12:54 85.1 °F /  29.5 °C 60.8 °F /  16 °C 29.9in /  1010.8hPa ESE 2.9mph /  4.7km/h 11.4mph /  18.3km/h 44% 0in /  0.0mm
12:59 85.1 °F /  29.5 °C 60.4 °F /  15.8 °C 29.9in /  1010.8hPa SE 4.1mph /  6.6km/h 12mph /  19.3km/h 43.6% 0in /  0.0mm
13:04 85.1 °F /  29.5 °C 60.8 °F /  16 °C 29.9in /  1011.0hPa ESE 6.2mph /  10km/h 12mph /  19.3km/h 44.1% 0in /  0.0mm
13:09 85.3 °F /  29.6 °C 60.8 °F /  16 °C 29.9in /  1011.0hPa SE 6.2mph /  10km/h 10.4mph /  16.7km/h 43.8% 0in /  0.0mm
13:14 85.1 °F /  29.5 °C 60.8 °F /  16 °C 29.9in /  1011.0hPa SE 6.2mph /  10km/h 10mph /  16.1km/h 44% 0in /  0.0mm
13:19 85.5 °F /  29.7 °C 61.2 °F /  16.2 °C 29.9in /  1011.5hPa Sur 5.7mph /  9.2km/h 9mph /  14.5km/h 44.1% 0in /  0.0mm
13:24 85.8 °F /  29.9 °C 61.3 °F /  16.3 °C 29.9in /  1011.5hPa ESE 4.7mph /  7.6km/h 11.5mph /  18.5km/h 43.7% 0in /  0.0mm
13:29 86.4 °F /  30.2 °C 61.2 °F /  16.2 °C 29.9in /  1011.5hPa SE 4.3mph /  7km/h 12mph /  19.3km/h 43.1% 0in /  0.0mm
13:34 86.7 °F /  30.4 °C 61.3 °F /  16.3 °C 29.9in /  1011.5hPa NE 3.6mph /  5.8km/h 7mph /  11.3km/h 42.7% 0in /  0.0mm
13:39 87.4 °F /  30.8 °C 61.5 °F /  16.4 °C 29.9in /  1011.2hPa SSE 3.6mph /  5.8km/h 7.6mph /  12.2km/h 42% 0in /  0.0mm
13:44 87.8 °F /  31 °C 61.7 °F /  16.5 °C 29.9in /  1011.2hPa ENE 3.6mph /  5.8km/h 8.1mph /  13km/h 41.8% 0in /  0.0mm
13:49 87.6 °F /  30.9 °C 61.2 °F /  16.2 °C 29.9in /  1011.2hPa Este 4mph /  6.4km/h 15.9mph /  25.6km/h 41.2% 0in /  0.0mm
13:54 87.3 °F /  30.7 °C 61.5 °F /  16.4 °C 29.9in /  1010.8hPa ESE 4.7mph /  7.6km/h 16.3mph /  26.2km/h 42.3% 0in /  0.0mm
13:59 87.3 °F /  30.7 °C 62.2 °F /  16.8 °C 29.9in /  1010.8hPa ESE 6.2mph /  9.9km/h 16.1mph /  25.9km/h 43.5% 0in /  0.0mm
14:04 87.1 °F /  30.6 °C 62.4 °F /  16.9 °C 29.9in /  1010.8hPa Este 8.7mph /  14km/h 16mph /  25.7km/h 44% 0in /  0.0mm
14:09 86.5 °F /  30.3 °C 62.1 °F /  16.7 °C 29.8in /  1009.9hPa Este 7.6mph /  12.2km/h 10mph /  16.1km/h 44.1% 0in /  0.0mm
14:14 86.4 °F /  30.2 °C 62.1 °F /  16.7 °C 29.8in /  1009.9hPa ESE 5.4mph /  8.7km/h 7.4mph /  11.9km/h 44.2% 0in /  0.0mm
14:19 86.4 °F /  30.2 °C 62.1 °F /  16.7 °C 29.8in /  1010.0hPa Este 5.2mph /  8.3km/h 7.4mph /  11.9km/h 44.5% 0in /  0.0mm
14:24 86.4 °F /  30.2 °C 62.1 °F /  16.7 °C 29.8in /  1010.0hPa NE 4.7mph /  7.6km/h 12.7mph /  20.4km/h 44.6% 0in /  0.0mm
14:29 86.2 °F /  30.1 °C 62.4 °F /  16.9 °C 29.8in /  1010.0hPa NE 5.1mph /  8.2km/h 13mph /  20.9km/h 45% 0in /  0.0mm
14:34 86.4 °F /  30.2 °C 62.4 °F /  16.9 °C 29.8in /  1010.0hPa NNE 5.9mph /  9.5km/h 10.7mph /  17.2km/h 45% 0in /  0.0mm
14:39 86.2 °F /  30.1 °C 62.8 °F /  17.1 °C 29.8in /  1009.2hPa NE 6.2mph /  9.9km/h 15mph /  24.1km/h 45.8% 0in /  0.0mm
14:44 85.8 °F /  29.9 °C 62.6 °F /  17 °C 29.8in /  1009.2hPa NE 6.9mph /  11.1km/h 15mph /  24.1km/h 46.1% 0in /  0.0mm
14:49 85.8 °F /  29.9 °C 62.6 °F /  17 °C 29.8in /  1009.4hPa NE 6.6mph /  10.6km/h 9.2mph /  14.8km/h 46% 0in /  0.0mm
14:54 85.8 °F /  29.9 °C 62.6 °F /  17 °C 29.8in /  1009.4hPa ENE 5.9mph /  9.5km/h 9mph /  14.5km/h 46% 0in /  0.0mm
14:59 86.4 °F /  30.2 °C 62.6 °F /  17 °C 29.8in /  1009.4hPa ESE 4.8mph /  7.8km/h 6.2mph /  10km/h 45.4% 0in /  0.0mm
15:04 86.4 °F /  30.2 °C 62.6 °F /  17 °C 29.8in /  1009.5hPa NE 3.1mph /  5km/h 6.2mph /  10km/h 45% 0in /  0.0mm
15:09 86.7 °F /  30.4 °C 63 °F /  17.2 °C 29.8in /  1009.5hPa ESE 3.3mph /  5.3km/h 10.4mph /  16.7km/h 45% 0in /  0.0mm
15:14 87.3 °F /  30.7 °C 63 °F /  17.2 °C 29.8in /  1009.5hPa ENE 3.6mph /  5.8km/h 10mph /  16.1km/h 44.4% 0in /  0.0mm
15:19 87.6 °F /  30.9 °C 62.8 °F /  17.1 °C 29.8in /  1009.5hPa SSE 4mph /  6.4km/h 8mph /  12.9km/h 43.8% 0in /  0.0mm
15:24 88.2 °F /  31.2 °C 63.1 °F /  17.3 °C 29.8in /  1009.5hPa ESE 4.7mph /  7.6km/h 10mph /  16.1km/h 43.5% 0in /  0.0mm
15:29 88.5 °F /  31.4 °C 62.2 °F /  16.8 °C 29.8in /  1009.5hPa SE 4.7mph /  7.6km/h 10.4mph /  16.7km/h 41.6% 0in /  0.0mm
15:34 88.5 °F /  31.4 °C 61.9 °F /  16.6 °C 29.8in /  1009.5hPa SSE 4.7mph /  7.6km/h 10mph /  16.1km/h 41% 0in /  0.0mm
15:39 88.5 °F /  31.4 °C 61.5 °F /  16.4 °C 29.8in /  1009.4hPa SSO 4.7mph /  7.6km/h 8.5mph /  13.7km/h 40.7% 0in /  0.0mm
15:44 88.5 °F /  31.4 °C 61.7 °F /  16.5 °C 29.8in /  1009.4hPa SSO 4.7mph /  7.6km/h 9mph /  14.5km/h 40.8% 0in /  0.0mm
15:49 89.1 °F /  31.7 °C 61.7 °F /  16.5 °C 29.8in /  1009.4hPa SE 4.1mph /  6.6km/h 6mph /  9.7km/h 40.3% 0in /  0.0mm
15:54 89.6 °F /  32 °C 61.2 °F /  16.2 °C 29.8in /  1009.3hPa SO 2.9mph /  4.7km/h 7.4mph /  11.9km/h 38.9% 0in /  0.0mm
15:59 90 °F /  32.2 °C 61 °F /  16.1 °C 29.8in /  1009.3hPa SSE 2.9mph /  4.7km/h 9.7mph /  15.6km/h 38% 0in /  0.0mm
16:04 89.4 °F /  31.9 °C 60.8 °F /  16 °C 29.8in /  1009.3hPa Sur 2.9mph /  4.7km/h 10mph /  16.1km/h 38.5% 0in /  0.0mm
16:09 89.2 °F /  31.8 °C 61 °F /  16.1 °C 29.8in /  1009.1hPa SO 3.5mph /  5.6km/h 9mph /  14.5km/h 39% 0in /  0.0mm
16:14 89.6 °F /  32 °C 61.3 °F /  16.3 °C 29.8in /  1009.1hPa NNO 4.7mph /  7.6km/h 8.1mph /  13km/h 39.1% 0in /  0.0mm
16:19 90 °F /  32.2 °C 61.3 °F /  16.3 °C 29.8in /  1009.1hPa ENE 4.5mph /  7.2km/h 8.1mph /  13km/h 38.6% 0in /  0.0mm
16:24 90 °F /  32.2 °C 61.7 °F /  16.5 °C 29.8in /  1009.0hPa ENE 4mph /  6.5km/h 8.1mph /  13km/h 39% 0in /  0.0mm
16:29 90.1 °F /  32.3 °C 61.7 °F /  16.5 °C 29.8in /  1009.0hPa North 4mph /  6.5km/h 8.1mph /  13km/h 39% 0in /  0.0mm
16:34 90.5 °F /  32.5 °C 61.9 °F /  16.6 °C 29.8in /  1009.0hPa NNE 4mph /  6.5km/h 8mph /  12.9km/h 38.6% 0in /  0.0mm
16:39 90.9 °F /  32.7 °C 62.2 °F /  16.8 °C 29.8in /  1008.7hPa NNE 3.9mph /  6.2km/h 9.2mph /  14.8km/h 38.6% 0in /  0.0mm
16:44 91 °F /  32.8 °C 62.6 °F /  17 °C 29.8in /  1008.7hPa NE 3.6mph /  5.8km/h 9.2mph /  14.8km/h 38.8% 0in /  0.0mm
16:49 91 °F /  32.8 °C 62.2 °F /  16.8 °C 29.8in /  1008.7hPa NNE 4.2mph /  6.8km/h 9.2mph /  14.8km/h 38.2% 0in /  0.0mm
16:54 91 °F /  32.8 °C 62.2 °F /  16.8 °C 29.8in /  1008.5hPa NNE 5.4mph /  8.7km/h 9mph /  14.5km/h 38.2% 0in /  0.0mm
16:59 91.4 °F /  33 °C 62.2 °F /  16.8 °C 29.8in /  1008.5hPa NNE 5mph /  8km/h 11.5mph /  18.5km/h 38% 0in /  0.0mm
17:04 91.4 °F /  33 °C 62.2 °F /  16.8 °C 29.8in /  1008.5hPa NE 4.3mph /  6.9km/h 12.7mph /  20.4km/h 38% 0in /  0.0mm
17:09 91.4 °F /  33 °C 62.2 °F /  16.8 °C 29.8in /  1008.3hPa NE 5mph /  8.1km/h 13mph /  20.9km/h 38% 0in /  0.0mm
17:14 91.8 °F /  33.2 °C 62.4 °F /  16.9 °C 29.8in /  1008.3hPa NE 6.4mph /  10.3km/h 10mph /  16.1km/h 38% 0in /  0.0mm
17:19 91.9 °F /  33.3 °C 62.6 °F /  17 °C 29.8in /  1008.3hPa NE 6.2mph /  9.9km/h 12.7mph /  20.4km/h 38% 0in /  0.0mm
17:24 91.9 °F /  33.3 °C 62.6 °F /  17 °C 29.8in /  1008.1hPa NNE 5.4mph /  8.7km/h 13mph /  20.9km/h 38% 0in /  0.0mm
17:29 91.9 °F /  33.3 °C 63 °F /  17.2 °C 29.8in /  1008.1hPa NE 5.9mph /  9.5km/h 12.7mph /  20.4km/h 38.4% 0in /  0.0mm
17:34 92.1 °F /  33.4 °C 63.1 °F /  17.3 °C 29.8in /  1008.1hPa NE 6.9mph /  11.1km/h 13mph /  20.9km/h 38.4% 0in /  0.0mm
17:39 91.9 °F /  33.3 °C 63.5 °F /  17.5 °C 29.8in /  1007.9hPa NE 6.9mph /  11.1km/h 11.8mph /  19km/h 38.9% 0in /  0.0mm
17:44 92.1 °F /  33.4 °C 63.5 °F /  17.5 °C 29.8in /  1007.9hPa NE 6.9mph /  11.1km/h 12.5mph /  20.1km/h 38.8% 0in /  0.0mm
17:49 92.3 °F /  33.5 °C 64.2 °F /  17.9 °C 29.8in /  1007.9hPa NE 6.9mph /  11.1km/h 13mph /  20.9km/h 39.7% 0in /  0.0mm
17:54 92.3 °F /  33.5 °C 65.3 °F /  18.5 °C 29.8in /  1007.8hPa ENE 6.9mph /  11.1km/h 13mph /  20.9km/h 41.1% 0in /  0.0mm
17:59 92.5 °F /  33.6 °C 64.8 °F /  18.2 °C 29.8in /  1007.8hPa ENE 6.7mph /  10.8km/h 13.7mph /  22km/h 40.3% 0in /  0.0mm
18:04 92.5 °F /  33.6 °C 66.4 °F /  19.1 °C 29.8in /  1007.8hPa NE 6.4mph /  10.3km/h 14mph /  22.5km/h 42.4% 0in /  0.0mm
18:09 92.3 °F /  33.5 °C 66.9 °F /  19.4 °C 29.8in /  1007.7hPa NE 7.1mph /  11.5km/h 15mph /  24.1km/h 43.7% 0in /  0.0mm
18:14 91.9 °F /  33.3 °C 67.5 °F /  19.7 °C 29.8in /  1007.7hPa NNE 8.5mph /  13.7km/h 17mph /  27.4km/h 45% 0in /  0.0mm
18:19 91.8 °F /  33.2 °C 68.2 °F /  20.1 °C 29.8in /  1007.7hPa NE 8.9mph /  14.3km/h 17.3mph /  27.8km/h 46.3% 0in /  0.0mm
18:24 91.6 °F /  33.1 °C 68.9 °F /  20.5 °C 29.8in /  1007.6hPa NE 9.7mph /  15.6km/h 20.1mph /  32.3km/h 47.7% 0in /  0.0mm
18:29 91 °F /  32.8 °C 68.7 °F /  20.4 °C 29.8in /  1007.6hPa NE 9.8mph /  15.8km/h 21mph /  33.8km/h 48% 0in /  0.0mm
18:34 91.4 °F /  33 °C 67.1 °F /  19.5 °C 29.8in /  1007.6hPa Este 10mph /  16.1km/h 16mph /  25.7km/h 45% 0in /  0.0mm
18:39 91.6 °F /  33.1 °C 66.7 °F /  19.3 °C 29.8in /  1007.6hPa Este 8.8mph /  14.1km/h 13mph /  20.9km/h 44.3% 0in /  0.0mm
18:44 91.4 °F /  33 °C 67.5 °F /  19.7 °C 29.8in /  1007.6hPa ESE 6.2mph /  10km/h 17.5mph /  28.2km/h 45.7% 0in /  0.0mm
18:49 90.5 °F /  32.5 °C 68.4 °F /  20.2 °C 29.8in /  1007.8hPa ESE 7.8mph /  12.5km/h 19.6mph /  31.5km/h 48.2% 0in /  0.0mm
18:54 89.8 °F /  32.1 °C 68.9 °F /  20.5 °C 29.8in /  1007.8hPa ESE 10.7mph /  17.2km/h 20.8mph /  33.5km/h 50.5% 0in /  0.0mm
18:59 88.7 °F /  31.5 °C 69.1 °F /  20.6 °C 29.8in /  1007.8hPa ESE 11.1mph /  17.9km/h 21mph /  33.8km/h 52.4% 0in /  0.0mm
19:04 87.8 °F /  31 °C 69.4 °F /  20.8 °C 29.8in /  1008.0hPa ESE 11.8mph /  19km/h 22.3mph /  35.9km/h 54.5% 0in /  0.0mm
19:09 87.3 °F /  30.7 °C 69.6 °F /  20.9 °C 29.8in /  1008.0hPa ESE 12.4mph /  20km/h 22mph /  35.4km/h 56% 0in /  0.0mm
19:14 86.5 °F /  30.3 °C 69.6 °F /  20.9 °C 29.8in /  1008.0hPa ESE 13.7mph /  22.1km/h 20mph /  32.2km/h 57.1% 0in /  0.0mm
19:19 86.5 °F /  30.3 °C 69.6 °F /  20.9 °C 29.8in /  1008.2hPa ESE 13.2mph /  21.2km/h 23.5mph /  37.8km/h 57.5% 0in /  0.0mm
19:24 85.6 °F /  29.8 °C 70 °F /  21.1 °C 29.8in /  1008.2hPa ESE 11.8mph /  19km/h 23mph /  37km/h 59.4% 0in /  0.0mm
19:29 85.5 °F /  29.7 °C 70 °F /  21.1 °C 29.8in /  1008.2hPa ESE 11.7mph /  18.8km/h 19mph /  30.6km/h 60% 0in /  0.0mm
19:34 85.5 °F /  29.7 °C 69.8 °F /  21 °C 29.8in /  1008.5hPa ESE 11.4mph /  18.4km/h 20.7mph /  33.3km/h 60% 0in /  0.0mm
19:39 85.1 °F /  29.5 °C 69.6 °F /  20.9 °C 29.8in /  1008.5hPa ESE 11.3mph /  18.2km/h 21mph /  33.8km/h 60% 0in /  0.0mm
19:44 84.9 °F /  29.4 °C 69.8 °F /  21 °C 29.8in /  1008.5hPa ESE 11.2mph /  18km/h 20mph /  32.2km/h 60.8% 0in /  0.0mm
19:49 84.6 °F /  29.2 °C 69.6 °F /  20.9 °C 29.8in /  1008.8hPa ESE 11.4mph /  18.4km/h 19mph /  30.6km/h 61% 0in /  0.0mm
19:54 84.6 °F /  29.2 °C 69.6 °F /  20.9 °C 29.8in /  1008.8hPa ESE 11.8mph /  19km/h 17mph /  27.4km/h 61% 0in /  0.0mm
19:59 84.6 °F /  29.2 °C 69.6 °F /  20.9 °C 29.8in /  1008.8hPa ESE 11.1mph /  17.9km/h 16.1mph /  25.9km/h 61% 0in /  0.0mm
20:04 84.2 °F /  29 °C 69.4 °F /  20.8 °C 29.8in /  1009.1hPa ESE 10mph /  16.1km/h 16mph /  25.7km/h 61.6% 0in /  0.0mm
20:09 83.8 °F /  28.8 °C 69.4 °F /  20.8 °C 29.8in /  1009.1hPa ESE 10mph /  16.1km/h 17.5mph /  28.2km/h 62.1% 0in /  0.0mm
20:14 83.7 °F /  28.7 °C 69.6 °F /  20.9 °C 29.8in /  1009.1hPa ESE 10mph /  16.1km/h 18.4mph /  29.6km/h 63% 0in /  0.0mm
20:19 83.1 °F /  28.4 °C 69.8 °F /  21 °C 29.8in /  1009.4hPa ESE 10.3mph /  16.5km/h 19.6mph /  31.5km/h 64.1% 0in /  0.0mm
20:24 82.9 °F /  28.3 °C 70 °F /  21.1 °C 29.8in /  1009.4hPa Este 10.7mph /  17.2km/h 20mph /  32.2km/h 65% 0in /  0.0mm
20:29 82.6 °F /  28.1 °C 70.2 °F /  21.2 °C 29.8in /  1009.4hPa Este 10.5mph /  16.9km/h 20.7mph /  33.3km/h 66% 0in /  0.0mm
20:34 82.2 °F /  27.9 °C 70.2 °F /  21.2 °C 29.8in /  1009.4hPa ESE 10.2mph /  16.4km/h 21mph /  33.8km/h 67.1% 0in /  0.0mm
20:39 82 °F /  27.8 °C 70.3 °F /  21.3 °C 29.8in /  1009.4hPa ESE 10mph /  16.1km/h 18.4mph /  29.6km/h 68% 0in /  0.0mm
20:44 81.7 °F /  27.6 °C 70.5 °F /  21.4 °C 29.8in /  1009.4hPa ESE 9.7mph /  15.6km/h 16mph /  25.7km/h 68.8% 0in /  0.0mm
20:49 81.5 °F /  27.5 °C 70.3 °F /  21.3 °C 29.8in /  1009.6hPa ESE 9.5mph /  15.3km/h 17mph /  27.4km/h 69.2% 0in /  0.0mm
20:54 81.1 °F /  27.3 °C 70.5 °F /  21.4 °C 29.8in /  1009.6hPa ESE 9.2mph /  14.8km/h 17.3mph /  27.8km/h 70% 0in /  0.0mm
20:59 81.1 °F /  27.3 °C 70.5 °F /  21.4 °C 29.8in /  1009.6hPa Este 8.9mph /  14.4km/h 17mph /  27.4km/h 70.5% 0in /  0.0mm
21:04 81 °F /  27.2 °C 70.7 °F /  21.5 °C 29.8in /  1010.2hPa ESE 8.5mph /  13.7km/h 16.3mph /  26.2km/h 71% 0in /  0.0mm
21:09 80.8 °F /  27.1 °C 70.7 °F /  21.5 °C 29.8in /  1010.2hPa ESE 8.4mph /  13.5km/h 16.1mph /  25.9km/h 71.6% 0in /  0.0mm
21:14 80.6 °F /  27 °C 70.7 °F /  21.5 °C 29.8in /  1010.2hPa ESE 8.1mph /  13km/h 14mph /  22.5km/h 72% 0in /  0.0mm
21:19 80.4 °F /  26.9 °C 70.5 °F /  21.4 °C 29.8in /  1010.3hPa ESE 7.8mph /  12.6km/h 13mph /  20.9km/h 72% 0in /  0.0mm
21:24 80.4 °F /  26.9 °C 70.7 °F /  21.5 °C 29.8in /  1010.3hPa ESE 7.4mph /  11.9km/h 12mph /  19.3km/h 72% 0in /  0.0mm
21:29 80.4 °F /  26.9 °C 70.3 °F /  21.3 °C 29.8in /  1010.3hPa ESE 6.8mph /  10.9km/h 11.8mph /  19km/h 71.4% 0in /  0.0mm
21:34 80.4 °F /  26.9 °C 70.3 °F /  21.3 °C 29.8in /  1010.6hPa ESE 5.4mph /  8.7km/h 12.3mph /  19.8km/h 71.1% 0in /  0.0mm
21:39 80.2 °F /  26.8 °C 70.5 °F /  21.4 °C 29.8in /  1010.6hPa ESE 5.9mph /  9.5km/h 13mph /  20.9km/h 72% 0in /  0.0mm
21:44 80.1 °F /  26.7 °C 70.5 °F /  21.4 °C 29.8in /  1010.6hPa ESE 6.9mph /  11.1km/h 13mph /  20.9km/h 72.9% 0in /  0.0mm
21:49 80.1 °F /  26.7 °C 70.5 °F /  21.4 °C 29.8in /  1010.6hPa ESE 6.9mph /  11.1km/h 12.7mph /  20.4km/h 73% 0in /  0.0mm
21:54 79.9 °F /  26.6 °C 70.3 °F /  21.3 °C 29.8in /  1010.6hPa ESE 6.9mph /  11.1km/h 13mph /  20.9km/h 73% 0in /  0.0mm
21:59 79.9 °F /  26.6 °C 70.3 °F /  21.3 °C 29.8in /  1010.6hPa ESE 6.3mph /  10.1km/h 13mph /  20.9km/h 73% 0in /  0.0mm
22:04 79.9 °F /  26.6 °C 70.3 °F /  21.3 °C 29.9in /  1011.0hPa Este 5.4mph /  8.7km/h 6mph /  9.7km/h 73% 0in /  0.0mm
22:09 79.9 °F /  26.6 °C 70.3 °F /  21.3 °C 29.9in /  1011.0hPa ESE 4.6mph /  7.4km/h 6.9mph /  11.1km/h 73% 0in /  0.0mm
22:14 79.9 °F /  26.6 °C 70.3 °F /  21.3 °C 29.9in /  1011.0hPa SE 3.1mph /  5km/h 7mph /  11.3km/h 73% 0in /  0.0mm
22:19 79.9 °F /  26.6 °C 70.3 °F /  21.3 °C 29.9in /  1011.1hPa Este 3mph /  4.9km/h 6mph /  9.7km/h 73% 0in /  0.0mm
22:24 79.9 °F /  26.6 °C 70.3 °F /  21.3 °C 29.9in /  1011.1hPa ENE 2.9mph /  4.7km/h 6mph /  9.7km/h 73% 0in /  0.0mm
22:29 79.5 °F /  26.4 °C 70.3 °F /  21.3 °C 29.9in /  1011.1hPa NE 3mph /  4.8km/h 6.9mph /  11.1km/h 73.2% 0in /  0.0mm
22:34 79.3 °F /  26.3 °C 70.3 °F /  21.3 °C 29.9in /  1011.3hPa NNE 3.1mph /  5km/h 7.4mph /  11.9km/h 74% 0in /  0.0mm
22:39 79.3 °F /  26.3 °C 70.3 °F /  21.3 °C 29.9in /  1011.3hPa NE 3.7mph /  5.9km/h 7.4mph /  11.9km/h 74.3% 0in /  0.0mm
22:44 79.2 °F /  26.2 °C 70.5 °F /  21.4 °C 29.9in /  1011.3hPa NE 4.7mph /  7.6km/h 10.4mph /  16.7km/h 75% 0in /  0.0mm
22:49 79 °F /  26.1 °C 70.3 °F /  21.3 °C 29.9in /  1011.6hPa NE 4.7mph /  7.6km/h 10mph /  16.1km/h 75% 0in /  0.0mm
22:54 79 °F /  26.1 °C 70.3 °F /  21.3 °C 29.9in /  1011.6hPa ENE 4.7mph /  7.6km/h 7mph /  11.3km/h 75% 0in /  0.0mm
22:59 79 °F /  26.1 °C 70.3 °F /  21.3 °C 29.9in /  1011.6hPa NE 4.3mph /  6.9km/h 7mph /  11.3km/h 75% 0in /  0.0mm
23:04 79 °F /  26.1 °C 70.3 °F /  21.3 °C 29.9in /  1011.7hPa NE 3.6mph /  5.8km/h 6.2mph /  10km/h 75% 0in /  0.0mm
23:09 79 °F /  26.1 °C 70.5 °F /  21.4 °C 29.9in /  1011.7hPa ENE 3.6mph /  5.8km/h 6.4mph /  10.3km/h 75.1% 0in /  0.0mm
23:14 79 °F /  26.1 °C 70.5 °F /  21.4 °C 29.9in /  1011.7hPa ESE 3.6mph /  5.8km/h 9.7mph /  15.6km/h 75.2% 0in /  0.0mm
23:19 79 °F /  26.1 °C 70.5 °F /  21.4 °C 29.9in /  1011.9hPa SE 4mph /  6.4km/h 10mph /  16.1km/h 75.1% 0in /  0.0mm
23:24 79 °F /  26.1 °C 70.3 °F /  21.3 °C 29.9in /  1011.9hPa SE 4.7mph /  7.6km/h 9mph /  14.5km/h 75% 0in /  0.0mm
23:29 79 °F /  26.1 °C 70.3 °F /  21.3 °C 29.9in /  1011.9hPa SE 4.9mph /  7.9km/h 9.2mph /  14.8km/h 75% 0in /  0.0mm
23:34 79.2 °F /  26.2 °C 70.5 °F /  21.4 °C 29.9in /  1012.0hPa ESE 5.4mph /  8.7km/h 9.2mph /  14.8km/h 75% 0in /  0.0mm
23:39 79.2 °F /  26.2 °C 70.3 °F /  21.3 °C 29.9in /  1012.0hPa SE 5.4mph /  8.7km/h 9mph /  14.5km/h 74.3% 0in /  0.0mm
23:44 79.2 °F /  26.2 °C 70.2 °F /  21.2 °C 29.9in /  1012.0hPa SE 5.4mph /  8.7km/h 8.1mph /  13km/h 74% 0in /  0.0mm
23:49 79.2 °F /  26.2 °C 70.2 °F /  21.2 °C 29.9in /  1012.0hPa ESE 5mph /  8.1km/h 8mph /  12.9km/h 74% 0in /  0.0mm
23:54 79.2 °F /  26.2 °C 70.2 °F /  21.2 °C 29.9in /  1012.0hPa SE 4.3mph /  6.9km/h 6mph /  9.7km/h 73.8% 0in /  0.0mm
23:59 79.2 °F /  26.2 °C 69.8 °F /  21 °C 29.9in /  1012.0hPa SE 4mph /  6.5km/h 6.9mph /  11.1km/h 73% 0in /  0.0mm
Murcia-Puente Tocinos, España
Compliments of Weather Underground - 2.75 mb

La estación de MeteoMurcia.com, publica sus datos en los siguientes proyectos:

Weather Underground PWS IMURCIAP2 Meteoclimatic www.awekas.at

W3Counter
Web Analytics